sensor_id;sensor_type;location;lat;lon;timestamp;P1;durP1;ratioP1;P2;durP2;ratioP2
63034;SDS011;59750;53.356;-1.458;2022-10-14T00:00:22;5.35;;;3.63;;
63034;SDS011;59750;53.356;-1.458;2022-10-14T00:02:48;7.35;;;3.65;;
63034;SDS011;59750;53.356;-1.458;2022-10-14T00:05:14;4.80;;;3.78;;
63034;SDS011;59750;53.356;-1.458;2022-10-14T00:07:40;8.73;;;4.63;;
63034;SDS011;59750;53.356;-1.458;2022-10-14T00:10:05;6.68;;;3.40;;
63034;SDS011;59750;53.356;-1.458;2022-10-14T00:12:32;8.23;;;4.20;;
63034;SDS011;59750;53.356;-1.458;2022-10-14T00:14:58;5.85;;;4.15;;
63034;SDS011;59750;53.356;-1.458;2022-10-14T00:17:24;6.35;;;3.95;;
63034;SDS011;59750;53.356;-1.458;2022-10-14T00:19:50;9.18;;;3.58;;
63034;SDS011;59750;53.356;-1.458;2022-10-14T00:22:16;5.22;;;3.83;;
63034;SDS011;59750;53.356;-1.458;2022-10-14T00:24:42;7.32;;;4.05;;
63034;SDS011;59750;53.356;-1.458;2022-10-14T00:27:07;6.35;;;4.47;;
63034;SDS011;59750;53.356;-1.458;2022-10-14T00:29:33;9.18;;;4.68;;
63034;SDS011;59750;53.356;-1.458;2022-10-14T00:32:00;7.93;;;4.97;;
63034;SDS011;59750;53.356;-1.458;2022-10-14T00:34:26;8.68;;;4.25;;
63034;SDS011;59750;53.356;-1.458;2022-10-14T00:36:51;8.55;;;4.25;;
63034;SDS011;59750;53.356;-1.458;2022-10-14T00:39:18;8.75;;;4.25;;
63034;SDS011;59750;53.356;-1.458;2022-10-14T00:41:43;8.82;;;4.57;;
63034;SDS011;59750;53.356;-1.458;2022-10-14T00:46:37;8.27;;;4.18;;
63034;SDS011;59750;53.356;-1.458;2022-10-14T00:49:11;11.18;;;4.57;;
63034;SDS011;59750;53.356;-1.458;2022-10-14T00:51:42;9.20;;;4.28;;
63034;SDS011;59750;53.356;-1.458;2022-10-14T00:54:14;8.45;;;4.43;;
63034;SDS011;59750;53.356;-1.458;2022-10-14T00:56:44;7.15;;;3.97;;
63034;SDS011;59750;53.356;-1.458;2022-10-14T00:59:12;7.30;;;4.35;;
63034;SDS011;59750;53.356;-1.458;2022-10-14T01:01:40;7.50;;;4.30;;
63034;SDS011;59750;53.356;-1.458;2022-10-14T01:04:06;8.15;;;4.15;;
63034;SDS011;59750;53.356;-1.458;2022-10-14T01:06:39;8.02;;;4.00;;
63034;SDS011;59750;53.356;-1.458;2022-10-14T01:11:51;7.57;;;4.05;;
63034;SDS011;59750;53.356;-1.458;2022-10-14T01:14:41;9.38;;;4.22;;
63034;SDS011;59750;53.356;-1.458;2022-10-14T01:31:43;13.85;;;6.45;;
63034;SDS011;59750;53.356;-1.458;2022-10-14T01:34:12;11.87;;;5.60;;
63034;SDS011;59750;53.356;-1.458;2022-10-14T01:36:44;12.50;;;7.47;;
63034;SDS011;59750;53.356;-1.458;2022-10-14T01:39:19;16.60;;;6.55;;
63034;SDS011;59750;53.356;-1.458;2022-10-14T01:41:52;11.83;;;6.30;;
63034;SDS011;59750;53.356;-1.458;2022-10-14T01:44:24;11.82;;;6.18;;
63034;SDS011;59750;53.356;-1.458;2022-10-14T01:46:53;14.60;;;6.95;;
63034;SDS011;59750;53.356;-1.458;2022-10-14T01:49:24;16.55;;;7.57;;
63034;SDS011;59750;53.356;-1.458;2022-10-14T01:52:02;13.27;;;6.18;;
63034;SDS011;59750;53.356;-1.458;2022-10-14T01:54:34;11.93;;;6.75;;
63034;SDS011;59750;53.356;-1.458;2022-10-14T01:57:07;12.70;;;5.88;;
63034;SDS011;59750;53.356;-1.458;2022-10-14T01:59:36;16.40;;;6.93;;
63034;SDS011;59750;53.356;-1.458;2022-10-14T02:02:04;10.57;;;5.88;;
63034;SDS011;59750;53.356;-1.458;2022-10-14T02:04:30;13.63;;;6.35;;
63034;SDS011;59750;53.356;-1.458;2022-10-14T02:07:01;10.43;;;6.30;;
63034;SDS011;59750;53.356;-1.458;2022-10-14T02:20:40;7.35;;;4.82;;
63034;SDS011;59750;53.356;-1.458;2022-10-14T02:23:14;9.82;;;4.97;;
63034;SDS011;59750;53.356;-1.458;2022-10-14T02:25:45;8.57;;;5.22;;
63034;SDS011;59750;53.356;-1.458;2022-10-14T02:28:14;12.05;;;5.28;;
63034;SDS011;59750;53.356;-1.458;2022-10-14T02:30:47;11.07;;;5.30;;
63034;SDS011;59750;53.356;-1.458;2022-10-14T02:33:19;9.68;;;5.18;;
63034;SDS011;59750;53.356;-1.458;2022-10-14T02:35:49;10.05;;;4.78;;
63034;SDS011;59750;53.356;-1.458;2022-10-14T02:38:18;11.93;;;4.97;;
63034;SDS011;59750;53.356;-1.458;2022-10-14T02:40:46;7.53;;;5.00;;
63034;SDS011;59750;53.356;-1.458;2022-10-14T02:43:14;8.02;;;4.50;;
63034;SDS011;59750;53.356;-1.458;2022-10-14T02:45:40;8.63;;;5.10;;
63034;SDS011;59750;53.356;-1.458;2022-10-14T02:48:08;8.38;;;4.63;;
63034;SDS011;59750;53.356;-1.458;2022-10-14T02:50:36;11.18;;;5.43;;
63034;SDS011;59750;53.356;-1.458;2022-10-14T02:53:02;6.93;;;4.30;;
63034;SDS011;59750;53.356;-1.458;2022-10-14T02:55:28;6.65;;;4.40;;
63034;SDS011;59750;53.356;-1.458;2022-10-14T02:57:54;9.13;;;5.57;;
63034;SDS011;59750;53.356;-1.458;2022-10-14T03:00:21;8.30;;;4.60;;
63034;SDS011;59750;53.356;-1.458;2022-10-14T03:02:47;7.53;;;4.30;;
63034;SDS011;59750;53.356;-1.458;2022-10-14T03:05:13;7.40;;;4.38;;
63034;SDS011;59750;53.356;-1.458;2022-10-14T03:07:39;6.78;;;4.38;;
63034;SDS011;59750;53.356;-1.458;2022-10-14T03:10:05;11.32;;;5.43;;
63034;SDS011;59750;53.356;-1.458;2022-10-14T03:12:31;8.40;;;4.40;;
63034;SDS011;59750;53.356;-1.458;2022-10-14T03:14:57;8.52;;;4.32;;
63034;SDS011;59750;53.356;-1.458;2022-10-14T03:17:23;9.45;;;5.25;;
63034;SDS011;59750;53.356;-1.458;2022-10-14T03:19:50;8.32;;;4.95;;
63034;SDS011;59750;53.356;-1.458;2022-10-14T03:22:16;8.50;;;5.10;;
63034;SDS011;59750;53.356;-1.458;2022-10-14T03:24:41;9.90;;;5.00;;
63034;SDS011;59750;53.356;-1.458;2022-10-14T03:27:08;10.43;;;5.30;;
63034;SDS011;59750;53.356;-1.458;2022-10-14T03:29:33;8.10;;;4.78;;
63034;SDS011;59750;53.356;-1.458;2022-10-14T03:31:59;8.77;;;4.68;;
63034;SDS011;59750;53.356;-1.458;2022-10-14T03:34:25;8.85;;;5.95;;
63034;SDS011;59750;53.356;-1.458;2022-10-14T03:36:51;10.10;;;5.35;;
63034;SDS011;59750;53.356;-1.458;2022-10-14T03:39:16;9.52;;;5.18;;
63034;SDS011;59750;53.356;-1.458;2022-10-14T03:41:42;9.60;;;5.47;;
63034;SDS011;59750;53.356;-1.458;2022-10-14T03:44:09;10.90;;;5.57;;
63034;SDS011;59750;53.356;-1.458;2022-10-14T03:46:35;8.23;;;5.18;;
63034;SDS011;59750;53.356;-1.458;2022-10-14T03:49:01;10.23;;;5.50;;
63034;SDS011;59750;53.356;-1.458;2022-10-14T03:51:28;8.88;;;5.63;;
63034;SDS011;59750;53.356;-1.458;2022-10-14T03:53:54;14.20;;;6.50;;
63034;SDS011;59750;53.356;-1.458;2022-10-14T03:56:20;9.38;;;5.97;;
63034;SDS011;59750;53.356;-1.458;2022-10-14T03:58:46;9.80;;;5.85;;
63034;SDS011;59750;53.356;-1.458;2022-10-14T04:01:12;9.02;;;5.47;;
63034;SDS011;59750;53.356;-1.458;2022-10-14T04:03:37;9.73;;;5.50;;
63034;SDS011;59750;53.356;-1.458;2022-10-14T04:06:06;13.05;;;5.78;;
63034;SDS011;59750;53.356;-1.458;2022-10-14T04:08:33;9.00;;;4.35;;
63034;SDS011;59750;53.356;-1.458;2022-10-14T04:10:58;9.35;;;4.65;;
63034;SDS011;59750;53.356;-1.458;2022-10-14T04:13:24;7.20;;;4.65;;
63034;SDS011;59750;53.356;-1.458;2022-10-14T04:15:53;6.07;;;4.30;;
63034;SDS011;59750;53.356;-1.458;2022-10-14T04:18:18;11.77;;;4.85;;
63034;SDS011;59750;53.356;-1.458;2022-10-14T04:20:45;12.35;;;5.63;;
63034;SDS011;59750;53.356;-1.458;2022-10-14T04:23:10;11.90;;;5.32;;
63034;SDS011;59750;53.356;-1.458;2022-10-14T04:25:37;10.68;;;6.68;;
63034;SDS011;59750;53.356;-1.458;2022-10-14T04:28:04;10.32;;;6.40;;
63034;SDS011;59750;53.356;-1.458;2022-10-14T04:30:30;15.00;;;6.63;;
63034;SDS011;59750;53.356;-1.458;2022-10-14T04:32:55;10.93;;;5.97;;
63034;SDS011;59750;53.356;-1.458;2022-10-14T04:35:21;12.55;;;7.40;;
63034;SDS011;59750;53.356;-1.458;2022-10-14T04:37:47;13.57;;;7.47;;
63034;SDS011;59750;53.356;-1.458;2022-10-14T04:40:12;15.07;;;8.07;;
63034;SDS011;59750;53.356;-1.458;2022-10-14T04:42:39;15.02;;;7.22;;
63034;SDS011;59750;53.356;-1.458;2022-10-14T04:45:04;13.07;;;8.05;;
63034;SDS011;59750;53.356;-1.458;2022-10-14T04:47:30;13.90;;;7.82;;
63034;SDS011;59750;53.356;-1.458;2022-10-14T04:49:56;15.38;;;7.05;;
63034;SDS011;59750;53.356;-1.458;2022-10-14T04:52:22;16.10;;;8.07;;
63034;SDS011;59750;53.356;-1.458;2022-10-14T04:54:48;11.00;;;6.63;;
63034;SDS011;59750;53.356;-1.458;2022-10-14T04:57:14;14.52;;;7.13;;
63034;SDS011;59750;53.356;-1.458;2022-10-14T04:59:39;11.43;;;6.18;;
63034;SDS011;59750;53.356;-1.458;2022-10-14T05:02:05;10.63;;;6.40;;
63034;SDS011;59750;53.356;-1.458;2022-10-14T05:04:31;13.68;;;6.72;;
63034;SDS011;59750;53.356;-1.458;2022-10-14T05:06:57;12.98;;;6.18;;
63034;SDS011;59750;53.356;-1.458;2022-10-14T05:09:23;11.32;;;6.43;;
63034;SDS011;59750;53.356;-1.458;2022-10-14T05:11:48;16.95;;;8.63;;
63034;SDS011;59750;53.356;-1.458;2022-10-14T05:14:15;16.73;;;7.05;;
63034;SDS011;59750;53.356;-1.458;2022-10-14T05:16:40;15.15;;;7.45;;
63034;SDS011;59750;53.356;-1.458;2022-10-14T05:19:06;14.45;;;6.93;;
63034;SDS011;59750;53.356;-1.458;2022-10-14T05:21:32;16.30;;;8.48;;
63034;SDS011;59750;53.356;-1.458;2022-10-14T05:23:57;16.67;;;8.15;;
63034;SDS011;59750;53.356;-1.458;2022-10-14T05:26:23;12.95;;;7.30;;
63034;SDS011;59750;53.356;-1.458;2022-10-14T05:28:50;17.92;;;8.95;;
63034;SDS011;59750;53.356;-1.458;2022-10-14T05:31:16;16.65;;;9.18;;
63034;SDS011;59750;53.356;-1.458;2022-10-14T05:33:42;23.90;;;10.32;;
63034;SDS011;59750;53.356;-1.458;2022-10-14T05:36:08;24.05;;;9.73;;
63034;SDS011;59750;53.356;-1.458;2022-10-14T05:38:34;17.60;;;9.40;;
63034;SDS011;59750;53.356;-1.458;2022-10-14T05:41:00;16.30;;;9.88;;
63034;SDS011;59750;53.356;-1.458;2022-10-14T05:43:27;17.52;;;9.63;;
63034;SDS011;59750;53.356;-1.458;2022-10-14T05:45:53;16.05;;;9.23;;
63034;SDS011;59750;53.356;-1.458;2022-10-14T05:48:19;22.05;;;9.50;;
63034;SDS011;59750;53.356;-1.458;2022-10-14T05:50:45;15.45;;;10.00;;
63034;SDS011;59750;53.356;-1.458;2022-10-14T05:53:11;21.83;;;10.85;;
63034;SDS011;59750;53.356;-1.458;2022-10-14T05:55:37;18.40;;;9.68;;
63034;SDS011;59750;53.356;-1.458;2022-10-14T05:58:03;18.58;;;10.07;;
63034;SDS011;59750;53.356;-1.458;2022-10-14T06:00:29;17.50;;;9.18;;
63034;SDS011;59750;53.356;-1.458;2022-10-14T06:02:56;14.45;;;9.35;;
63034;SDS011;59750;53.356;-1.458;2022-10-14T06:05:23;21.02;;;10.93;;
63034;SDS011;59750;53.356;-1.458;2022-10-14T06:07:50;21.67;;;11.15;;
63034;SDS011;59750;53.356;-1.458;2022-10-14T06:10:18;22.52;;;11.23;;
63034;SDS011;59750;53.356;-1.458;2022-10-14T06:12:44;20.20;;;11.38;;
63034;SDS011;59750;53.356;-1.458;2022-10-14T06:15:10;26.45;;;11.85;;
63034;SDS011;59750;53.356;-1.458;2022-10-14T06:17:36;19.73;;;11.55;;
63034;SDS011;59750;53.356;-1.458;2022-10-14T06:20:02;22.25;;;12.23;;
63034;SDS011;59750;53.356;-1.458;2022-10-14T06:22:29;21.60;;;10.80;;
63034;SDS011;59750;53.356;-1.458;2022-10-14T06:24:55;23.63;;;11.30;;
63034;SDS011;59750;53.356;-1.458;2022-10-14T06:27:21;18.58;;;10.73;;
63034;SDS011;59750;53.356;-1.458;2022-10-14T06:29:47;20.90;;;11.00;;
63034;SDS011;59750;53.356;-1.458;2022-10-14T06:32:13;22.73;;;10.73;;
63034;SDS011;59750;53.356;-1.458;2022-10-14T06:34:39;25.20;;;12.40;;
63034;SDS011;59750;53.356;-1.458;2022-10-14T06:37:06;24.70;;;13.52;;
63034;SDS011;59750;53.356;-1.458;2022-10-14T06:39:33;23.33;;;12.70;;
63034;SDS011;59750;53.356;-1.458;2022-10-14T06:42:00;27.90;;;13.75;;
63034;SDS011;59750;53.356;-1.458;2022-10-14T06:44:27;26.75;;;12.55;;
63034;SDS011;59750;53.356;-1.458;2022-10-14T06:46:53;25.27;;;12.68;;
63034;SDS011;59750;53.356;-1.458;2022-10-14T06:49:19;26.27;;;13.13;;
63034;SDS011;59750;53.356;-1.458;2022-10-14T06:51:46;26.13;;;13.40;;
63034;SDS011;59750;53.356;-1.458;2022-10-14T06:54:13;27.52;;;13.10;;
63034;SDS011;59750;53.356;-1.458;2022-10-14T06:56:39;27.08;;;13.57;;
63034;SDS011;59750;53.356;-1.458;2022-10-14T06:59:05;23.00;;;13.00;;
63034;SDS011;59750;53.356;-1.458;2022-10-14T07:01:31;28.50;;;14.05;;
63034;SDS011;59750;53.356;-1.458;2022-10-14T07:03:57;23.63;;;12.82;;
63034;SDS011;59750;53.356;-1.458;2022-10-14T07:06:24;22.77;;;13.13;;
63034;SDS011;59750;53.356;-1.458;2022-10-14T07:08:50;33.90;;;15.23;;
63034;SDS011;59750;53.356;-1.458;2022-10-14T07:11:16;26.33;;;14.73;;
63034;SDS011;59750;53.356;-1.458;2022-10-14T07:13:43;26.98;;;13.90;;
63034;SDS011;59750;53.356;-1.458;2022-10-14T07:16:10;31.65;;;15.82;;
63034;SDS011;59750;53.356;-1.458;2022-10-14T07:18:37;31.00;;;16.20;;
63034;SDS011;59750;53.356;-1.458;2022-10-14T07:21:03;25.90;;;14.38;;
63034;SDS011;59750;53.356;-1.458;2022-10-14T07:23:31;31.98;;;15.48;;
63034;SDS011;59750;53.356;-1.458;2022-10-14T07:25:59;31.92;;;16.15;;
63034;SDS011;59750;53.356;-1.458;2022-10-14T07:28:25;25.90;;;13.55;;
63034;SDS011;59750;53.356;-1.458;2022-10-14T07:30:59;28.35;;;14.60;;
63034;SDS011;59750;53.356;-1.458;2022-10-14T07:33:27;36.35;;;15.73;;
63034;SDS011;59750;53.356;-1.458;2022-10-14T07:35:53;23.30;;;15.05;;
63034;SDS011;59750;53.356;-1.458;2022-10-14T07:38:20;29.38;;;16.23;;
63034;SDS011;59750;53.356;-1.458;2022-10-14T07:40:55;26.60;;;15.02;;
63034;SDS011;59750;53.356;-1.458;2022-10-14T07:43:23;33.13;;;14.52;;
63034;SDS011;59750;53.356;-1.458;2022-10-14T07:45:50;30.42;;;15.20;;
63034;SDS011;59750;53.356;-1.458;2022-10-14T07:48:17;27.20;;;14.30;;
63034;SDS011;59750;53.356;-1.458;2022-10-14T07:50:48;25.33;;;13.65;;
63034;SDS011;59750;53.356;-1.458;2022-10-14T07:53:15;25.25;;;14.07;;
63034;SDS011;59750;53.356;-1.458;2022-10-14T07:55:44;28.05;;;14.10;;
63034;SDS011;59750;53.356;-1.458;2022-10-14T08:00:44;31.27;;;13.65;;
63034;SDS011;59750;53.356;-1.458;2022-10-14T08:03:11;23.52;;;14.40;;
63034;SDS011;59750;53.356;-1.458;2022-10-14T08:05:38;27.10;;;14.68;;
63034;SDS011;59750;53.356;-1.458;2022-10-14T08:08:05;26.33;;;14.43;;
63034;SDS011;59750;53.356;-1.458;2022-10-14T08:10:32;27.15;;;13.20;;
63034;SDS011;59750;53.356;-1.458;2022-10-14T08:12:59;24.30;;;12.65;;
63034;SDS011;59750;53.356;-1.458;2022-10-14T08:15:26;22.48;;;12.90;;
63034;SDS011;59750;53.356;-1.458;2022-10-14T08:17:55;25.92;;;14.48;;
63034;SDS011;59750;53.356;-1.458;2022-10-14T08:20:21;26.40;;;14.07;;
63034;SDS011;59750;53.356;-1.458;2022-10-14T08:22:47;26.00;;;13.75;;
63034;SDS011;59750;53.356;-1.458;2022-10-14T08:25:13;23.52;;;12.45;;
63034;SDS011;59750;53.356;-1.458;2022-10-14T08:27:39;23.30;;;11.73;;
63034;SDS011;59750;53.356;-1.458;2022-10-14T08:30:06;21.10;;;11.77;;
63034;SDS011;59750;53.356;-1.458;2022-10-14T08:32:33;18.15;;;11.75;;
63034;SDS011;59750;53.356;-1.458;2022-10-14T08:34:59;21.02;;;9.70;;
63034;SDS011;59750;53.356;-1.458;2022-10-14T08:37:25;18.00;;;10.20;;
63034;SDS011;59750;53.356;-1.458;2022-10-14T08:39:51;12.23;;;8.32;;
63034;SDS011;59750;53.356;-1.458;2022-10-14T08:48:15;8.65;;;5.10;;
63034;SDS011;59750;53.356;-1.458;2022-10-14T08:50:50;9.02;;;4.55;;
63034;SDS011;59750;53.356;-1.458;2022-10-14T08:53:27;6.78;;;4.25;;
63034;SDS011;59750;53.356;-1.458;2022-10-14T08:55:58;7.65;;;5.22;;
63034;SDS011;59750;53.356;-1.458;2022-10-14T08:58:33;7.13;;;4.50;;
63034;SDS011;59750;53.356;-1.458;2022-10-14T09:01:13;6.32;;;3.95;;
63034;SDS011;59750;53.356;-1.458;2022-10-14T09:03:40;4.60;;;3.15;;
63034;SDS011;59750;53.356;-1.458;2022-10-14T09:06:11;3.83;;;3.00;;
63034;SDS011;59750;53.356;-1.458;2022-10-14T09:08:45;4.68;;;2.92;;
63034;SDS011;59750;53.356;-1.458;2022-10-14T09:11:14;5.05;;;2.40;;
63034;SDS011;59750;53.356;-1.458;2022-10-14T09:13:46;3.42;;;2.35;;
63034;SDS011;59750;53.356;-1.458;2022-10-14T09:16:18;5.65;;;2.30;;
63034;SDS011;59750;53.356;-1.458;2022-10-14T09:18:49;6.85;;;2.58;;
63034;SDS011;59750;53.356;-1.458;2022-10-14T09:26:52;5.00;;;2.95;;
63034;SDS011;59750;53.356;-1.458;2022-10-14T09:32:12;3.80;;;2.00;;
63034;SDS011;59750;53.356;-1.458;2022-10-14T09:34:47;4.30;;;1.83;;
63034;SDS011;59750;53.356;-1.458;2022-10-14T09:45:48;1.35;;;0.93;;
63034;SDS011;59750;53.356;-1.458;2022-10-14T09:51:25;2.53;;;1.27;;
63034;SDS011;59750;53.356;-1.458;2022-10-14T09:53:56;2.13;;;0.90;;
63034;SDS011;59750;53.356;-1.458;2022-10-14T09:56:33;2.47;;;1.08;;
63034;SDS011;59750;53.356;-1.458;2022-10-14T09:59:02;3.95;;;1.20;;
63034;SDS011;59750;53.356;-1.458;2022-10-14T10:01:37;3.17;;;1.00;;
63034;SDS011;59750;53.356;-1.458;2022-10-14T10:07:09;2.65;;;1.15;;
63034;SDS011;59750;53.356;-1.458;2022-10-14T10:09:53;3.30;;;0.90;;
63034;SDS011;59750;53.356;-1.458;2022-10-14T10:15:15;1.20;;;0.90;;
63034;SDS011;59750;53.356;-1.458;2022-10-14T10:17:44;2.58;;;1.10;;
63034;SDS011;59750;53.356;-1.458;2022-10-14T10:20:19;2.08;;;1.02;;
63034;SDS011;59750;53.356;-1.458;2022-10-14T10:23:15;3.92;;;1.48;;
63034;SDS011;59750;53.356;-1.458;2022-10-14T10:25:50;2.03;;;1.17;;
63034;SDS011;59750;53.356;-1.458;2022-10-14T10:28:17;2.97;;;1.00;;
63034;SDS011;59750;53.356;-1.458;2022-10-14T10:33:41;5.00;;;1.42;;
63034;SDS011;59750;53.356;-1.458;2022-10-14T10:36:24;1.70;;;1.13;;
63034;SDS011;59750;53.356;-1.458;2022-10-14T10:49:35;2.33;;;1.00;;
63034;SDS011;59750;53.356;-1.458;2022-10-14T10:52:16;2.20;;;1.00;;
63034;SDS011;59750;53.356;-1.458;2022-10-14T10:54:56;3.72;;;1.23;;
63034;SDS011;59750;53.356;-1.458;2022-10-14T10:57:44;2.17;;;0.88;;
63034;SDS011;59750;53.356;-1.458;2022-10-14T11:00:17;5.07;;;1.05;;
63034;SDS011;59750;53.356;-1.458;2022-10-14T11:14:31;4.32;;;1.38;;
63034;SDS011;59750;53.356;-1.458;2022-10-14T11:19:49;3.80;;;0.88;;
63034;SDS011;59750;53.356;-1.458;2022-10-14T11:30:35;2.67;;;0.80;;
63034;SDS011;59750;53.356;-1.458;2022-10-14T11:33:15;1.05;;;0.55;;
63034;SDS011;59750;53.356;-1.458;2022-10-14T11:47:21;4.13;;;1.00;;
63034;SDS011;59750;53.356;-1.458;2022-10-14T11:52:22;1.83;;;0.80;;
63034;SDS011;59750;53.356;-1.458;2022-10-14T11:54:54;4.28;;;1.02;;
63034;SDS011;59750;53.356;-1.458;2022-10-14T12:00:11;3.60;;;1.00;;
63034;SDS011;59750;53.356;-1.458;2022-10-14T12:08:46;2.50;;;0.95;;
63034;SDS011;59750;53.356;-1.458;2022-10-14T12:14:09;5.55;;;1.02;;
63034;SDS011;59750;53.356;-1.458;2022-10-14T12:16:38;3.75;;;0.77;;
63034;SDS011;59750;53.356;-1.458;2022-10-14T12:19:08;3.30;;;1.17;;
63034;SDS011;59750;53.356;-1.458;2022-10-14T12:24:12;3.08;;;1.00;;
63034;SDS011;59750;53.356;-1.458;2022-10-14T12:29:30;2.65;;;1.63;;
63034;SDS011;59750;53.356;-1.458;2022-10-14T12:34:30;1.75;;;0.80;;
63034;SDS011;59750;53.356;-1.458;2022-10-14T12:45:27;5.50;;;1.02;;
63034;SDS011;59750;53.356;-1.458;2022-10-14T12:48:04;7.68;;;0.95;;
63034;SDS011;59750;53.356;-1.458;2022-10-14T12:50:38;2.88;;;1.35;;
63034;SDS011;59750;53.356;-1.458;2022-10-14T12:53:13;3.65;;;0.90;;
63034;SDS011;59750;53.356;-1.458;2022-10-14T12:55:47;5.78;;;1.10;;
63034;SDS011;59750;53.356;-1.458;2022-10-14T12:58:25;2.58;;;0.75;;
63034;SDS011;59750;53.356;-1.458;2022-10-14T13:00:56;1.23;;;0.70;;
63034;SDS011;59750;53.356;-1.458;2022-10-14T13:03:28;3.80;;;0.85;;
63034;SDS011;59750;53.356;-1.458;2022-10-14T13:06:24;2.63;;;0.95;;
63034;SDS011;59750;53.356;-1.458;2022-10-14T13:14:28;2.35;;;0.73;;
63034;SDS011;59750;53.356;-1.458;2022-10-14T13:16:57;1.67;;;0.75;;
63034;SDS011;59750;53.356;-1.458;2022-10-14T13:22:33;3.33;;;0.60;;
63034;SDS011;59750;53.356;-1.458;2022-10-14T13:25:09;2.80;;;0.60;;
63034;SDS011;59750;53.356;-1.458;2022-10-14T13:27:41;5.68;;;1.00;;
63034;SDS011;59750;53.356;-1.458;2022-10-14T13:30:18;5.45;;;1.15;;
63034;SDS011;59750;53.356;-1.458;2022-10-14T13:32:59;4.28;;;0.95;;
63034;SDS011;59750;53.356;-1.458;2022-10-14T13:35:41;4.78;;;0.80;;
63034;SDS011;59750;53.356;-1.458;2022-10-14T13:38:34;4.50;;;0.95;;
63034;SDS011;59750;53.356;-1.458;2022-10-14T13:41:03;7.40;;;0.88;;
63034;SDS011;59750;53.356;-1.458;2022-10-14T13:46:02;5.57;;;1.25;;
63034;SDS011;59750;53.356;-1.458;2022-10-14T13:48:33;2.83;;;0.85;;
63034;SDS011;59750;53.356;-1.458;2022-10-14T13:54:07;3.97;;;1.20;;
63034;SDS011;59750;53.356;-1.458;2022-10-14T13:56:40;4.20;;;1.00;;
63034;SDS011;59750;53.356;-1.458;2022-10-14T14:01:53;2.42;;;0.82;;
63034;SDS011;59750;53.356;-1.458;2022-10-14T14:04:23;4.28;;;1.10;;
63034;SDS011;59750;53.356;-1.458;2022-10-14T14:06:52;5.55;;;1.42;;
63034;SDS011;59750;53.356;-1.458;2022-10-14T14:09:21;3.55;;;0.80;;
63034;SDS011;59750;53.356;-1.458;2022-10-14T14:14:20;3.05;;;0.80;;
63034;SDS011;59750;53.356;-1.458;2022-10-14T14:16:55;3.13;;;0.95;;
63034;SDS011;59750;53.356;-1.458;2022-10-14T14:24:42;3.95;;;1.05;;
63034;SDS011;59750;53.356;-1.458;2022-10-14T14:27:11;2.70;;;0.93;;
63034;SDS011;59750;53.356;-1.458;2022-10-14T14:29:41;7.13;;;1.13;;
63034;SDS011;59750;53.356;-1.458;2022-10-14T14:32:12;4.75;;;1.00;;
63034;SDS011;59750;53.356;-1.458;2022-10-14T14:34:44;1.80;;;1.05;;
63034;SDS011;59750;53.356;-1.458;2022-10-14T14:37:15;5.10;;;0.90;;
63034;SDS011;59750;53.356;-1.458;2022-10-14T14:39:54;3.95;;;1.20;;
63034;SDS011;59750;53.356;-1.458;2022-10-14T14:42:25;4.10;;;1.10;;
63034;SDS011;59750;53.356;-1.458;2022-10-14T14:44:56;4.72;;;1.25;;
63034;SDS011;59750;53.356;-1.458;2022-10-14T14:47:28;3.22;;;1.13;;
63034;SDS011;59750;53.356;-1.458;2022-10-14T14:49:56;3.67;;;0.90;;
63034;SDS011;59750;53.356;-1.458;2022-10-14T14:52:23;5.93;;;1.35;;
63034;SDS011;59750;53.356;-1.458;2022-10-14T14:54:50;3.58;;;1.25;;
63034;SDS011;59750;53.356;-1.458;2022-10-14T14:57:17;2.97;;;1.25;;
63034;SDS011;59750;53.356;-1.458;2022-10-14T15:02:21;4.47;;;1.13;;
63034;SDS011;59750;53.356;-1.458;2022-10-14T15:07:35;2.58;;;1.02;;
63034;SDS011;59750;53.356;-1.458;2022-10-14T15:10:03;9.48;;;2.85;;
63034;SDS011;59750;53.356;-1.458;2022-10-14T15:12:33;2.45;;;0.95;;
63034;SDS011;59750;53.356;-1.458;2022-10-14T15:20:49;1.65;;;0.98;;
63034;SDS011;59750;53.356;-1.458;2022-10-14T15:31:40;3.00;;;1.30;;
63034;SDS011;59750;53.356;-1.458;2022-10-14T15:34:18;3.72;;;1.33;;
63034;SDS011;59750;53.356;-1.458;2022-10-14T15:36:48;2.50;;;1.55;;
63034;SDS011;59750;53.356;-1.458;2022-10-14T15:39:16;5.32;;;1.10;;
63034;SDS011;59750;53.356;-1.458;2022-10-14T15:41:42;5.32;;;1.60;;
63034;SDS011;59750;53.356;-1.458;2022-10-14T15:44:10;3.88;;;1.90;;
63034;SDS011;59750;53.356;-1.458;2022-10-14T15:46:36;4.82;;;1.70;;
63034;SDS011;59750;53.356;-1.458;2022-10-14T15:49:27;4.25;;;1.48;;
63034;SDS011;59750;53.356;-1.458;2022-10-14T15:51:56;3.08;;;1.65;;
63034;SDS011;59750;53.356;-1.458;2022-10-14T15:54:21;2.92;;;1.50;;
63034;SDS011;59750;53.356;-1.458;2022-10-14T15:56:52;2.50;;;1.30;;
63034;SDS011;59750;53.356;-1.458;2022-10-14T15:59:22;3.08;;;1.27;;
63034;SDS011;59750;53.356;-1.458;2022-10-14T16:01:49;3.53;;;1.40;;
63034;SDS011;59750;53.356;-1.458;2022-10-14T16:04:19;5.05;;;1.50;;
63034;SDS011;59750;53.356;-1.458;2022-10-14T16:06:50;4.65;;;1.88;;
63034;SDS011;59750;53.356;-1.458;2022-10-14T16:09:20;3.60;;;1.65;;
63034;SDS011;59750;53.356;-1.458;2022-10-14T16:11:47;4.32;;;1.70;;
63034;SDS011;59750;53.356;-1.458;2022-10-14T16:14:23;2.03;;;1.38;;
63034;SDS011;59750;53.356;-1.458;2022-10-14T16:16:52;4.65;;;1.15;;
63034;SDS011;59750;53.356;-1.458;2022-10-14T16:19:19;4.50;;;1.90;;
63034;SDS011;59750;53.356;-1.458;2022-10-14T16:21:46;2.80;;;1.20;;
63034;SDS011;59750;53.356;-1.458;2022-10-14T16:24:16;4.57;;;2.03;;
63034;SDS011;59750;53.356;-1.458;2022-10-14T16:26:45;3.40;;;1.00;;
63034;SDS011;59750;53.356;-1.458;2022-10-14T16:29:14;1.48;;;0.70;;
63034;SDS011;59750;53.356;-1.458;2022-10-14T16:31:43;3.53;;;1.00;;
63034;SDS011;59750;53.356;-1.458;2022-10-14T16:34:15;4.80;;;1.43;;
63034;SDS011;59750;53.356;-1.458;2022-10-14T16:36:42;2.05;;;0.70;;
63034;SDS011;59750;53.356;-1.458;2022-10-14T16:39:09;1.65;;;0.60;;
63034;SDS011;59750;53.356;-1.458;2022-10-14T16:41:36;4.38;;;0.80;;
63034;SDS011;59750;53.356;-1.458;2022-10-14T16:44:03;2.88;;;0.80;;
63034;SDS011;59750;53.356;-1.458;2022-10-14T16:46:30;1.58;;;0.88;;
63034;SDS011;59750;53.356;-1.458;2022-10-14T16:49:15;1.77;;;0.88;;
63034;SDS011;59750;53.356;-1.458;2022-10-14T16:51:42;5.68;;;0.90;;
63034;SDS011;59750;53.356;-1.458;2022-10-14T16:54:10;1.02;;;0.70;;
63034;SDS011;59750;53.356;-1.458;2022-10-14T16:56:37;3.78;;;1.63;;
63034;SDS011;59750;53.356;-1.458;2022-10-14T16:59:22;1.50;;;0.98;;
63034;SDS011;59750;53.356;-1.458;2022-10-14T17:01:49;2.13;;;0.90;;
63034;SDS011;59750;53.356;-1.458;2022-10-14T17:04:16;1.00;;;0.70;;
63034;SDS011;59750;53.356;-1.458;2022-10-14T17:06:44;2.88;;;0.93;;
63034;SDS011;59750;53.356;-1.458;2022-10-14T17:09:12;2.10;;;0.93;;
63034;SDS011;59750;53.356;-1.458;2022-10-14T17:11:39;1.05;;;0.60;;
63034;SDS011;59750;53.356;-1.458;2022-10-14T17:14:07;2.97;;;0.80;;
63034;SDS011;59750;53.356;-1.458;2022-10-14T17:16:37;2.22;;;0.90;;
63034;SDS011;59750;53.356;-1.458;2022-10-14T17:19:03;4.30;;;1.05;;
63034;SDS011;59750;53.356;-1.458;2022-10-14T17:21:32;2.72;;;0.98;;
63034;SDS011;59750;53.356;-1.458;2022-10-14T17:23:58;3.00;;;0.90;;
63034;SDS011;59750;53.356;-1.458;2022-10-14T17:26:26;2.97;;;0.90;;
63034;SDS011;59750;53.356;-1.458;2022-10-14T17:28:54;2.40;;;0.80;;
63034;SDS011;59750;53.356;-1.458;2022-10-14T17:31:21;2.40;;;1.17;;
63034;SDS011;59750;53.356;-1.458;2022-10-14T17:33:47;3.50;;;0.95;;
63034;SDS011;59750;53.356;-1.458;2022-10-14T17:36:15;1.30;;;0.80;;
63034;SDS011;59750;53.356;-1.458;2022-10-14T17:38:42;1.70;;;0.80;;
63034;SDS011;59750;53.356;-1.458;2022-10-14T17:41:10;4.78;;;0.93;;
63034;SDS011;59750;53.356;-1.458;2022-10-14T17:43:38;1.25;;;0.70;;